sensor_id;sensor_type;location;lat;lon;timestamp;pressure;altitude;pressure_sealevel;temperature;humidity
46303;BME280;32029;51.358;5.628;2022-12-18T00:01:27;102565.00;;;-1.57;68.48
46303;BME280;32029;51.358;5.628;2022-12-18T00:03:55;102562.47;;;-1.60;68.59
46303;BME280;32029;51.358;5.628;2022-12-18T00:06:22;102561.66;;;-1.62;68.44
46303;BME280;32029;51.358;5.628;2022-12-18T00:08:50;102553.16;;;-1.73;68.52
46303;BME280;32029;51.358;5.628;2022-12-18T00:11:22;102540.16;;;-1.84;68.60
46303;BME280;32029;51.358;5.628;2022-12-18T00:13:49;102502.66;;;-2.09;68.49
46303;BME280;32029;51.358;5.628;2022-12-18T00:16:19;102551.66;;;-1.80;68.48
46303;BME280;32029;51.358;5.628;2022-12-18T00:18:52;102571.25;;;-1.77;68.48
46303;BME280;32029;51.358;5.628;2022-12-18T00:21:20;102565.06;;;-1.79;68.74
46303;BME280;32029;51.358;5.628;2022-12-18T00:23:48;102513.66;;;-2.15;69.25
46303;BME280;32029;51.358;5.628;2022-12-18T00:26:21;102546.69;;;-1.89;69.43
46303;BME280;32029;51.358;5.628;2022-12-18T00:28:50;102565.13;;;-1.80;69.51
46303;BME280;32029;51.358;5.628;2022-12-18T00:31:23;102560.69;;;-1.81;69.22
46303;BME280;32029;51.358;5.628;2022-12-18T00:33:56;102555.44;;;-1.84;68.80
46303;BME280;32029;51.358;5.628;2022-12-18T00:36:28;102552.84;;;-1.87;68.99
46303;BME280;32029;51.358;5.628;2022-12-18T00:38:56;102547.63;;;-1.90;68.39
46303;BME280;32029;51.358;5.628;2022-12-18T00:41:24;102548.72;;;-1.94;68.24
46303;BME280;32029;51.358;5.628;2022-12-18T00:44:15;102510.19;;;-2.17;68.24
46303;BME280;32029;51.358;5.628;2022-12-18T00:46:42;102543.84;;;-2.07;68.04
46303;BME280;32029;51.358;5.628;2022-12-18T00:49:12;102550.97;;;-2.06;68.15
46303;BME280;32029;51.358;5.628;2022-12-18T00:51:39;102535.34;;;-2.18;68.07
46303;BME280;32029;51.358;5.628;2022-12-18T00:54:08;102493.19;;;-2.39;67.98
46303;BME280;32029;51.358;5.628;2022-12-18T00:56:38;102536.09;;;-2.14;68.07
46303;BME280;32029;51.358;5.628;2022-12-18T00:59:06;102539.69;;;-2.15;68.58
46303;BME280;32029;51.358;5.628;2022-12-18T01:01:32;102538.91;;;-2.17;68.21
46303;BME280;32029;51.358;5.628;2022-12-18T01:04:01;102540.84;;;-2.21;67.94
46303;BME280;32029;51.358;5.628;2022-12-18T01:06:29;102495.31;;;-2.48;68.19
46303;BME280;32029;51.358;5.628;2022-12-18T01:08:55;102508.94;;;-2.52;68.39
46303;BME280;32029;51.358;5.628;2022-12-18T01:11:22;102559.03;;;-2.28;68.41
46303;BME280;32029;51.358;5.628;2022-12-18T01:13:52;102559.09;;;-2.29;68.56
46303;BME280;32029;51.358;5.628;2022-12-18T01:16:18;102560.97;;;-2.31;68.50
46303;BME280;32029;51.358;5.628;2022-12-18T01:18:46;102540.34;;;-2.53;67.89
46303;BME280;32029;51.358;5.628;2022-12-18T01:21:16;102563.84;;;-2.36;68.50
46303;BME280;32029;51.358;5.628;2022-12-18T01:23:46;102538.34;;;-2.48;68.71
46303;BME280;32029;51.358;5.628;2022-12-18T01:26:15;102559.34;;;-2.35;68.61
46303;BME280;32029;51.358;5.628;2022-12-18T01:28:44;102514.00;;;-2.66;68.27
46303;BME280;32029;51.358;5.628;2022-12-18T01:31:23;102561.28;;;-2.39;68.31
46303;BME280;32029;51.358;5.628;2022-12-18T01:33:50;102554.47;;;-2.48;68.48
46303;BME280;32029;51.358;5.628;2022-12-18T01:36:31;102565.09;;;-2.44;68.17
46303;BME280;32029;51.358;5.628;2022-12-18T01:39:00;102554.47;;;-2.48;68.37
46303;BME280;32029;51.358;5.628;2022-12-18T01:41:31;102554.56;;;-2.51;68.36
46303;BME280;32029;51.358;5.628;2022-12-18T01:50:15;102565.72;;;-2.60;68.50
46303;BME280;32029;51.358;5.628;2022-12-18T01:52:49;102554.09;;;-2.60;68.89
46303;BME280;32029;51.358;5.628;2022-12-18T01:55:22;102551.31;;;-2.59;68.99
46303;BME280;32029;51.358;5.628;2022-12-18T01:57:52;102548.63;;;-2.59;68.85
46303;BME280;32029;51.358;5.628;2022-12-18T02:00:22;102520.03;;;-2.83;68.81
46303;BME280;32029;51.358;5.628;2022-12-18T02:02:49;102520.84;;;-2.81;68.24
46303;BME280;32029;51.358;5.628;2022-12-18T02:05:19;102507.41;;;-2.81;68.49
46303;BME280;32029;51.358;5.628;2022-12-18T02:10:37;102549.94;;;-2.69;68.21
46303;BME280;32029;51.358;5.628;2022-12-18T02:13:36;102542.91;;;-2.73;68.34
46303;BME280;32029;51.358;5.628;2022-12-18T02:16:17;102543.06;;;-2.76;68.05
46303;BME280;32029;51.358;5.628;2022-12-18T02:18:48;102470.56;;;-3.23;67.72
46303;BME280;32029;51.358;5.628;2022-12-18T02:21:47;102545.94;;;-2.81;67.80
46303;BME280;32029;51.358;5.628;2022-12-18T02:26:55;102549.59;;;-2.83;68.12
46303;BME280;32029;51.358;5.628;2022-12-18T02:29:26;102540.03;;;-2.90;67.99
46303;BME280;32029;51.358;5.628;2022-12-18T02:32:03;102548.91;;;-2.88;68.15
46303;BME280;32029;51.358;5.628;2022-12-18T02:34:37;102541.84;;;-2.91;67.82
46303;BME280;32029;51.358;5.628;2022-12-18T02:37:08;102517.41;;;-3.08;67.78
46303;BME280;32029;51.358;5.628;2022-12-18T02:39:38;102538.38;;;-2.94;67.66
46303;BME280;32029;51.358;5.628;2022-12-18T02:42:05;102493.72;;;-3.21;67.61
46303;BME280;32029;51.358;5.628;2022-12-18T02:44:42;102536.75;;;-2.99;67.54
46303;BME280;32029;51.358;5.628;2022-12-18T02:47:13;102522.75;;;-3.07;67.69
46303;BME280;32029;51.358;5.628;2022-12-18T02:52:39;102519.00;;;-3.03;67.60
46303;BME280;32029;51.358;5.628;2022-12-18T02:55:13;102526.19;;;-3.03;67.92
46303;BME280;32029;51.358;5.628;2022-12-18T02:57:53;102517.25;;;-3.04;68.22
46303;BME280;32029;51.358;5.628;2022-12-18T03:00:32;102499.66;;;-3.12;68.54
46303;BME280;32029;51.358;5.628;2022-12-18T03:03:33;102520.75;;;-3.02;68.52
46303;BME280;32029;51.358;5.628;2022-12-18T03:06:27;102515.47;;;-3.05;68.40
46303;BME280;32029;51.358;5.628;2022-12-18T03:09:32;102520.94;;;-3.06;68.60
46303;BME280;32029;51.358;5.628;2022-12-18T03:12:35;102492.72;;;-3.18;68.17
46303;BME280;32029;51.358;5.628;2022-12-18T03:15:42;102497.16;;;-3.17;68.41
46303;BME280;32029;51.358;5.628;2022-12-18T03:18:35;102502.31;;;-3.11;68.58
46303;BME280;32029;51.358;5.628;2022-12-18T03:21:28;102475.34;;;-3.31;68.74
46303;BME280;32029;51.358;5.628;2022-12-18T03:24:18;102464.66;;;-3.33;68.59
46303;BME280;32029;51.358;5.628;2022-12-18T03:27:12;102497.91;;;-3.13;68.76
46303;BME280;32029;51.358;5.628;2022-12-18T03:30:06;102479.66;;;-3.27;68.92
46303;BME280;32029;51.358;5.628;2022-12-18T03:33:02;102454.09;;;-3.37;69.55
46303;BME280;32029;51.358;5.628;2022-12-18T03:35:51;102457.63;;;-3.37;69.20
46303;BME280;32029;51.358;5.628;2022-12-18T03:38:38;102474.50;;;-3.33;69.40
46303;BME280;32029;51.358;5.628;2022-12-18T03:41:32;102505.97;;;-3.13;69.62
46303;BME280;32029;51.358;5.628;2022-12-18T03:47:36;102495.19;;;-3.12;69.96
46303;BME280;32029;51.358;5.628;2022-12-18T03:50:49;102498.75;;;-3.11;70.24
46303;BME280;32029;51.358;5.628;2022-12-18T03:54:01;102459.47;;;-3.37;70.25
46303;BME280;32029;51.358;5.628;2022-12-18T03:56:57;102503.19;;;-3.10;69.80
46303;BME280;32029;51.358;5.628;2022-12-18T03:59:46;102428.06;;;-3.59;69.91
46303;BME280;32029;51.358;5.628;2022-12-18T04:02:34;102473.09;;;-3.20;69.59
46303;BME280;32029;51.358;5.628;2022-12-18T04:05:25;102479.19;;;-3.15;69.06
46303;BME280;32029;51.358;5.628;2022-12-18T04:08:13;102471.25;;;-3.18;69.09
46303;BME280;32029;51.358;5.628;2022-12-18T04:11:02;102424.03;;;-3.47;69.10
46303;BME280;32029;51.358;5.628;2022-12-18T04:13:48;102462.31;;;-3.18;69.19
46303;BME280;32029;51.358;5.628;2022-12-18T04:16:35;102465.00;;;-3.18;69.15
46303;BME280;32029;51.358;5.628;2022-12-18T04:19:21;102451.88;;;-3.26;69.61
46303;BME280;32029;51.358;5.628;2022-12-18T04:22:09;102406.25;;;-3.50;69.53
46303;BME280;32029;51.358;5.628;2022-12-18T04:24:56;102402.72;;;-3.52;69.69
46303;BME280;32029;51.358;5.628;2022-12-18T04:27:42;102416.38;;;-3.34;69.60
46303;BME280;32029;51.358;5.628;2022-12-18T04:30:29;102367.50;;;-3.66;69.88
46303;BME280;32029;51.358;5.628;2022-12-18T04:33:18;102433.88;;;-3.24;69.82
46303;BME280;32029;51.358;5.628;2022-12-18T04:36:04;102447.94;;;-3.17;69.49
46303;BME280;32029;51.358;5.628;2022-12-18T04:38:51;102448.03;;;-3.19;69.57
46303;BME280;32029;51.358;5.628;2022-12-18T04:41:37;102451.63;;;-3.20;69.68
46303;BME280;32029;51.358;5.628;2022-12-18T04:44:24;102451.75;;;-3.23;69.41
46303;BME280;32029;51.358;5.628;2022-12-18T04:47:10;102461.50;;;-3.21;69.19
46303;BME280;32029;51.358;5.628;2022-12-18T04:49:56;102429.44;;;-3.49;68.98
46303;BME280;32029;51.358;5.628;2022-12-18T04:52:42;102438.16;;;-3.42;68.77
46303;BME280;32029;51.358;5.628;2022-12-18T04:55:29;102427.94;;;-3.56;69.10
46303;BME280;32029;51.358;5.628;2022-12-18T04:58:15;102477.84;;;-3.27;68.99
46303;BME280;32029;51.358;5.628;2022-12-18T05:01:02;102454.44;;;-3.47;69.14
46303;BME280;32029;51.358;5.628;2022-12-18T05:03:51;102365.22;;;-4.00;68.75
46303;BME280;32029;51.358;5.628;2022-12-18T05:06:37;102444.16;;;-3.59;68.96
46303;BME280;32029;51.358;5.628;2022-12-18T05:09:23;102490.56;;;-3.32;69.17
46303;BME280;32029;51.358;5.628;2022-12-18T05:12:10;102484.31;;;-3.32;69.37
46303;BME280;32029;51.358;5.628;2022-12-18T05:14:56;102479.78;;;-3.30;69.49
46303;BME280;32029;51.358;5.628;2022-12-18T05:17:43;102445.66;;;-3.52;69.64
46303;BME280;32029;51.358;5.628;2022-12-18T05:20:31;102466.81;;;-3.42;69.66
46303;BME280;32029;51.358;5.628;2022-12-18T05:23:19;102462.22;;;-3.39;69.51
46303;BME280;32029;51.358;5.628;2022-12-18T05:26:06;102484.31;;;-3.32;69.62
46303;BME280;32029;51.358;5.628;2022-12-18T05:28:58;102440.31;;;-3.52;70.33
46303;BME280;32029;51.358;5.628;2022-12-18T05:31:44;102479.47;;;-3.23;70.54
46303;BME280;32029;51.358;5.628;2022-12-18T05:34:30;102411.03;;;-3.58;69.78
46303;BME280;32029;51.358;5.628;2022-12-18T05:37:17;102471.31;;;-3.19;70.55
46303;BME280;32029;51.358;5.628;2022-12-18T05:40:05;102434.25;;;-3.33;70.55
46303;BME280;32029;51.358;5.628;2022-12-18T05:42:52;102398.41;;;-3.56;70.14
46303;BME280;32029;51.358;5.628;2022-12-18T05:45:40;102467.50;;;-3.14;70.42
46303;BME280;32029;51.358;5.628;2022-12-18T05:48:27;102424.47;;;-3.36;70.01
46303;BME280;32029;51.358;5.628;2022-12-18T05:51:15;102418.34;;;-3.39;70.16
46303;BME280;32029;51.358;5.628;2022-12-18T05:54:02;102426.19;;;-3.33;70.20
46303;BME280;32029;51.358;5.628;2022-12-18T05:56:49;102461.19;;;-3.13;70.18
46303;BME280;32029;51.358;5.628;2022-12-18T05:59:35;102446.22;;;-3.18;69.98
46303;BME280;32029;51.358;5.628;2022-12-18T06:02:22;102465.75;;;-3.15;69.94
46303;BME280;32029;51.358;5.628;2022-12-18T06:05:20;102451.22;;;-3.09;70.16
46303;BME280;32029;51.358;5.628;2022-12-18T06:08:28;102428.16;;;-3.15;70.12
46303;BME280;32029;51.358;5.628;2022-12-18T06:11:30;102444.03;;;-3.09;70.23
46303;BME280;32029;51.358;5.628;2022-12-18T06:14:18;102438.91;;;-3.15;69.97
46303;BME280;32029;51.358;5.628;2022-12-18T06:17:22;102443.16;;;-3.09;70.27
46303;BME280;32029;51.358;5.628;2022-12-18T06:20:31;102417.16;;;-3.31;70.21
46303;BME280;32029;51.358;5.628;2022-12-18T06:22:59;102462.78;;;-3.07;70.04
46303;BME280;32029;51.358;5.628;2022-12-18T06:25:49;102436.22;;;-3.15;69.70
46303;BME280;32029;51.358;5.628;2022-12-18T06:28:20;102446.13;;;-3.17;69.66
46303;BME280;32029;51.358;5.628;2022-12-18T06:30:47;102451.56;;;-3.18;69.56
46303;BME280;32029;51.358;5.628;2022-12-18T06:33:26;102471.94;;;-3.13;69.14
46303;BME280;32029;51.358;5.628;2022-12-18T06:35:52;102427.34;;;-3.40;69.06
46303;BME280;32029;51.358;5.628;2022-12-18T06:38:18;102434.31;;;-3.35;69.30
46303;BME280;32029;51.358;5.628;2022-12-18T06:40:44;102408.25;;;-3.55;68.74
46303;BME280;32029;51.358;5.628;2022-12-18T06:43:10;102410.09;;;-3.57;68.76
46303;BME280;32029;51.358;5.628;2022-12-18T06:45:36;102418.59;;;-3.46;68.11
46303;BME280;32029;51.358;5.628;2022-12-18T06:48:02;102447.75;;;-3.35;68.14
46303;BME280;32029;51.358;5.628;2022-12-18T06:50:28;102414.34;;;-3.51;68.09
46303;BME280;32029;51.358;5.628;2022-12-18T06:52:54;102448.25;;;-3.25;68.49
46303;BME280;32029;51.358;5.628;2022-12-18T06:55:20;102447.66;;;-3.33;68.92
46303;BME280;32029;51.358;5.628;2022-12-18T06:57:46;102388.09;;;-3.66;68.37
46303;BME280;32029;51.358;5.628;2022-12-18T07:00:13;102438.56;;;-3.29;68.52
46303;BME280;32029;51.358;5.628;2022-12-18T07:02:39;102395.88;;;-3.59;68.26
46303;BME280;32029;51.358;5.628;2022-12-18T07:05:06;102408.44;;;-3.61;68.30
46303;BME280;32029;51.358;5.628;2022-12-18T07:07:33;102468.19;;;-3.32;68.74
46303;BME280;32029;51.358;5.628;2022-12-18T07:09:59;102390.03;;;-3.70;68.19
46303;BME280;32029;51.358;5.628;2022-12-18T07:12:27;102422.34;;;-3.50;68.38
46303;BME280;32029;51.358;5.628;2022-12-18T07:14:53;102436.13;;;-3.35;68.79
46303;BME280;32029;51.358;5.628;2022-12-18T07:17:19;102408.09;;;-3.52;69.00
46303;BME280;32029;51.358;5.628;2022-12-18T07:19:45;102385.56;;;-3.71;68.85
46303;BME280;32029;51.358;5.628;2022-12-18T07:22:11;102373.94;;;-3.70;69.21
46303;BME280;32029;51.358;5.628;2022-12-18T07:24:37;102366.00;;;-3.73;69.56
46303;BME280;32029;51.358;5.628;2022-12-18T07:27:03;102354.88;;;-3.64;69.48
46303;BME280;32029;51.358;5.628;2022-12-18T07:29:29;102380.09;;;-3.45;69.70
46303;BME280;32029;51.358;5.628;2022-12-18T07:31:55;102380.66;;;-3.36;70.12
46303;BME280;32029;51.358;5.628;2022-12-18T07:34:21;102348.06;;;-3.49;70.02
46303;BME280;32029;51.358;5.628;2022-12-18T07:36:47;102364.16;;;-3.49;70.05
46303;BME280;32029;51.358;5.628;2022-12-18T07:39:13;102338.47;;;-3.55;70.24
46303;BME280;32029;51.358;5.628;2022-12-18T07:41:39;102366.56;;;-3.41;69.74
46303;BME280;32029;51.358;5.628;2022-12-18T07:44:12;102341.81;;;-3.50;70.36
46303;BME280;32029;51.358;5.628;2022-12-18T07:46:38;102368.19;;;-3.37;70.25
46303;BME280;32029;51.358;5.628;2022-12-18T07:49:04;102394.31;;;-3.19;70.52
46303;BME280;32029;51.358;5.628;2022-12-18T07:51:30;102326.59;;;-3.49;71.12
46303;BME280;32029;51.358;5.628;2022-12-18T07:53:58;102326.38;;;-3.43;70.42
46303;BME280;32029;51.358;5.628;2022-12-18T07:56:24;102324.16;;;-3.33;71.17
46303;BME280;32029;51.358;5.628;2022-12-18T07:58:50;102334.59;;;-3.26;71.18
46303;BME280;32029;51.358;5.628;2022-12-18T08:01:16;102335.34;;;-3.22;71.17
46303;BME280;32029;51.358;5.628;2022-12-18T08:03:42;102319.13;;;-3.19;71.44
46303;BME280;32029;51.358;5.628;2022-12-18T08:06:09;102350.34;;;-2.94;71.66
46303;BME280;32029;51.358;5.628;2022-12-18T08:08:36;102324.00;;;-3.07;71.84
46303;BME280;32029;51.358;5.628;2022-12-18T08:11:03;102315.84;;;-3.05;71.82
46303;BME280;32029;51.358;5.628;2022-12-18T08:13:29;102325.50;;;-3.00;72.08
46303;BME280;32029;51.358;5.628;2022-12-18T08:15:59;102353.47;;;-2.83;72.29
46303;BME280;32029;51.358;5.628;2022-12-18T08:18:25;102252.63;;;-3.34;72.61
46303;BME280;32029;51.358;5.628;2022-12-18T08:20:51;102316.84;;;-2.86;72.75
46303;BME280;32029;51.358;5.628;2022-12-18T08:23:18;102328.97;;;-2.76;72.74
46303;BME280;32029;51.358;5.628;2022-12-18T08:25:46;102325.41;;;-2.76;73.09
46303;BME280;32029;51.358;5.628;2022-12-18T08:28:12;102368.16;;;-2.50;73.20
46303;BME280;32029;51.358;5.628;2022-12-18T08:30:38;102345.41;;;-2.63;73.37
46303;BME280;32029;51.358;5.628;2022-12-18T08:33:04;102350.28;;;-2.51;73.16
46303;BME280;32029;51.358;5.628;2022-12-18T08:35:34;102351.88;;;-2.47;73.76
46303;BME280;32029;51.358;5.628;2022-12-18T08:38:00;102315.31;;;-2.51;73.80
46303;BME280;32029;51.358;5.628;2022-12-18T08:40:26;102352.56;;;-2.21;74.04
46303;BME280;32029;51.358;5.628;2022-12-18T08:42:52;102321.84;;;-2.36;74.03
46303;BME280;32029;51.358;5.628;2022-12-18T08:45:37;102380.41;;;-2.02;74.10
46303;BME280;32029;51.358;5.628;2022-12-18T08:48:03;102363.97;;;-1.95;74.22
46303;BME280;32029;51.358;5.628;2022-12-18T08:50:31;102312.63;;;-2.10;74.29
46303;BME280;32029;51.358;5.628;2022-12-18T08:52:59;102338.25;;;-1.82;74.29
46303;BME280;32029;51.358;5.628;2022-12-18T08:55:26;102295.91;;;-1.98;74.28
46303;BME280;32029;51.358;5.628;2022-12-18T08:57:52;102302.47;;;-1.84;74.54
46303;BME280;32029;51.358;5.628;2022-12-18T09:00:18;102282.31;;;-1.94;74.46
46303;BME280;32029;51.358;5.628;2022-12-18T09:02:44;102290.03;;;-1.87;74.94
46303;BME280;32029;51.358;5.628;2022-12-18T09:05:10;102341.03;;;-1.46;75.04
46303;BME280;32029;51.358;5.628;2022-12-18T09:07:38;102305.53;;;-1.54;75.10
46303;BME280;32029;51.358;5.628;2022-12-18T09:10:05;102289.97;;;-1.48;75.03
46303;BME280;32029;51.358;5.628;2022-12-18T09:12:31;102305.19;;;-1.29;75.46
46303;BME280;32029;51.358;5.628;2022-12-18T09:14:57;102295.34;;;-1.29;75.30
46303;BME280;32029;51.358;5.628;2022-12-18T09:17:23;102329.06;;;-1.03;75.47
46303;BME280;32029;51.358;5.628;2022-12-18T09:19:49;102321.06;;;-1.04;75.60
46303;BME280;32029;51.358;5.628;2022-12-18T09:22:15;102344.47;;;-0.87;75.66
46303;BME280;32029;51.358;5.628;2022-12-18T09:24:43;102344.94;;;-0.79;75.42
46303;BME280;32029;51.358;5.628;2022-12-18T09:27:09;102315.81;;;-0.90;75.62
46303;BME280;32029;51.358;5.628;2022-12-18T09:29:35;102344.50;;;-0.70;75.78
46303;BME280;32029;51.358;5.628;2022-12-18T09:32:02;102325.78;;;-0.73;75.75
46303;BME280;32029;51.358;5.628;2022-12-18T09:34:28;102345.06;;;-0.46;75.67
46303;BME280;32029;51.358;5.628;2022-12-18T09:36:54;102305.25;;;-0.58;75.72
46303;BME280;32029;51.358;5.628;2022-12-18T09:39:22;102304.50;;;-0.44;75.62
46303;BME280;32029;51.358;5.628;2022-12-18T09:41:53;102332.13;;;-0.22;75.72
46303;BME280;32029;51.358;5.628;2022-12-18T09:47:01;102317.00;;;-0.09;75.74
46303;BME280;32029;51.358;5.628;2022-12-18T09:49:30;102272.47;;;-0.33;75.47
46303;BME280;32029;51.358;5.628;2022-12-18T09:52:04;102308.19;;;-0.12;75.80
46303;BME280;32029;51.358;5.628;2022-12-18T09:54:48;102312.72;;;0.05;75.77
46303;BME280;32029;51.358;5.628;2022-12-18T09:57:22;102270.88;;;-0.04;75.44
46303;BME280;32029;51.358;5.628;2022-12-18T09:59:56;102313.09;;;0.30;75.74
46303;BME280;32029;51.358;5.628;2022-12-18T10:02:24;102269.69;;;0.17;75.61
46303;BME280;32029;51.358;5.628;2022-12-18T10:05:15;102299.53;;;0.47;75.65
46303;BME280;32029;51.358;5.628;2022-12-18T10:07:53;102269.38;;;0.39;75.84
46303;BME280;32029;51.358;5.628;2022-12-18T10:10:45;102294.31;;;0.60;75.63
46303;BME280;32029;51.358;5.628;2022-12-18T10:18:54;102280.19;;;0.71;75.41
46303;BME280;32029;51.358;5.628;2022-12-18T10:21:32;102285.75;;;0.84;75.70
46303;BME280;32029;51.358;5.628;2022-12-18T10:26:43;102297.38;;;1.16;75.50
46303;BME280;32029;51.358;5.628;2022-12-18T10:29:12;102288.09;;;1.20;76.05
46303;BME280;32029;51.358;5.628;2022-12-18T10:31:38;102286.31;;;1.35;75.41
46303;BME280;32029;51.358;5.628;2022-12-18T10:34:09;102276.19;;;1.38;75.71
46303;BME280;32029;51.358;5.628;2022-12-18T10:36:36;102272.16;;;1.45;75.55
46303;BME280;32029;51.358;5.628;2022-12-18T10:39:23;102289.78;;;1.67;75.01
46303;BME280;32029;51.358;5.628;2022-12-18T10:42:10;102261.78;;;1.68;74.96
46303;BME280;32029;51.358;5.628;2022-12-18T10:44:38;102262.75;;;1.81;75.10
46303;BME280;32029;51.358;5.628;2022-12-18T10:47:06;102256.97;;;1.87;74.99
46303;BME280;32029;51.358;5.628;2022-12-18T10:49:40;102234.63;;;1.84;74.98
46303;BME280;32029;51.358;5.628;2022-12-18T10:52:18;102179.53;;;1.56;74.42
46303;BME280;32029;51.358;5.628;2022-12-18T10:54:52;102224.47;;;1.87;74.10
46303;BME280;32029;51.358;5.628;2022-12-18T10:57:36;102180.38;;;1.71;74.01
46303;BME280;32029;51.358;5.628;2022-12-18T11:00:26;102232.88;;;2.11;74.16
46303;BME280;32029;51.358;5.628;2022-12-18T11:02:53;102235.47;;;2.13;74.05
46303;BME280;32029;51.358;5.628;2022-12-18T11:05:29;102227.16;;;2.16;73.88
46303;BME280;32029;51.358;5.628;2022-12-18T11:07:58;102220.56;;;2.20;74.23
46303;BME280;32029;51.358;5.628;2022-12-18T11:10:36;102202.16;;;2.25;74.12
46303;BME280;32029;51.358;5.628;2022-12-18T11:13:17;102171.63;;;2.09;73.98
46303;BME280;32029;51.358;5.628;2022-12-18T11:15:44;102207.88;;;2.35;73.80
46303;BME280;32029;51.358;5.628;2022-12-18T11:18:20;102217.59;;;2.37;73.51
46303;BME280;32029;51.358;5.628;2022-12-18T11:20:51;102200.03;;;2.30;73.50
46303;BME280;32029;51.358;5.628;2022-12-18T11:23:19;102219.72;;;2.47;73.31
46303;BME280;32029;51.358;5.628;2022-12-18T11:25:54;102176.06;;;2.24;73.59
46303;BME280;32029;51.358;5.628;2022-12-18T11:28:49;102212.72;;;2.57;73.10
46303;BME280;32029;51.358;5.628;2022-12-18T11:31:22;102201.69;;;2.60;72.70
46303;BME280;32029;51.358;5.628;2022-12-18T11:36:29;102191.38;;;2.65;72.88
46303;BME280;32029;51.358;5.628;2022-12-18T11:38:59;102142.09;;;2.45;72.30
46303;BME280;32029;51.358;5.628;2022-12-18T11:41:39;102142.56;;;2.52;72.21
46303;BME280;32029;51.358;5.628;2022-12-18T11:44:35;102174.88;;;2.82;71.78
46303;BME280;32029;51.358;5.628;2022-12-18T11:47:13;102179.97;;;2.87;71.93
46303;BME280;32029;51.358;5.628;2022-12-18T11:49:41;102138.72;;;2.69;71.87
46303;BME280;32029;51.358;5.628;2022-12-18T11:54:51;102150.56;;;2.81;71.20
46303;BME280;32029;51.358;5.628;2022-12-18T12:00:03;102156.38;;;3.02;70.60
46303;BME280;32029;51.358;5.628;2022-12-18T12:11:42;102153.91;;;3.37;70.82
46303;BME280;32029;51.358;5.628;2022-12-18T12:14:20;102157.16;;;3.42;70.52
46303;BME280;32029;51.358;5.628;2022-12-18T12:19:44;102101.38;;;3.25;70.24
46303;BME280;32029;51.358;5.628;2022-12-18T12:22:37;102125.69;;;3.52;69.68
46303;BME280;32029;51.358;5.628;2022-12-18T12:25:37;102118.72;;;3.48;70.28
46303;BME280;32029;51.358;5.628;2022-12-18T12:28:05;102124.13;;;3.61;70.02
46303;BME280;32029;51.358;5.628;2022-12-18T12:31:01;102121.94;;;3.66;69.86
46303;BME280;32029;51.358;5.628;2022-12-18T12:36:41;102098.19;;;3.57;69.33
46303;BME280;32029;51.358;5.628;2022-12-18T12:39:19;102073.97;;;3.54;69.31
46303;BME280;32029;51.358;5.628;2022-12-18T12:41:47;102069.84;;;3.61;68.81
46303;BME280;32029;51.358;5.628;2022-12-18T12:44:39;102099.13;;;3.81;68.85
46303;BME280;32029;51.358;5.628;2022-12-18T12:49:49;102046.84;;;3.54;68.64
46303;BME280;32029;51.358;5.628;2022-12-18T12:52:35;102051.91;;;3.71;68.57
46303;BME280;32029;51.358;5.628;2022-12-18T12:55:05;102048.94;;;3.74;68.43
46303;BME280;32029;51.358;5.628;2022-12-18T12:57:40;102090.91;;;4.07;68.12
46303;BME280;32029;51.358;5.628;2022-12-18T13:00:19;102080.53;;;4.12;68.36
46303;BME280;32029;51.358;5.628;2022-12-18T13:03:08;102085.53;;;4.18;68.43
46303;BME280;32029;51.358;5.628;2022-12-18T13:08:28;102065.06;;;4.25;68.03
46303;BME280;32029;51.358;5.628;2022-12-18T13:10:57;102006.84;;;3.92;67.66
46303;BME280;32029;51.358;5.628;2022-12-18T13:13:52;102059.38;;;4.28;67.68
46303;BME280;32029;51.358;5.628;2022-12-18T13:16:23;102049.63;;;4.26;67.75
46303;BME280;32029;51.358;5.628;2022-12-18T13:18:56;102023.50;;;4.12;67.75
46303;BME280;32029;51.358;5.628;2022-12-18T13:21:28;102047.84;;;4.37;67.14
46303;BME280;32029;51.358;5.628;2022-12-18T13:24:14;102038.69;;;4.38;67.33
46303;BME280;32029;51.358;5.628;2022-12-18T13:26:41;102024.91;;;4.29;67.18
46303;BME280;32029;51.358;5.628;2022-12-18T13:29:08;102022.78;;;4.21;67.14
46303;BME280;32029;51.358;5.628;2022-12-18T13:34:19;102055.72;;;4.40;66.59
46303;BME280;32029;51.358;5.628;2022-12-18T13:36:48;102044.75;;;4.42;66.67
46303;BME280;32029;51.358;5.628;2022-12-18T13:41:46;102018.75;;;4.27;66.81
46303;BME280;32029;51.358;5.628;2022-12-18T13:44:31;102041.91;;;4.43;66.79
46303;BME280;32029;51.358;5.628;2022-12-18T13:46:59;102031.03;;;4.43;66.78
46303;BME280;32029;51.358;5.628;2022-12-18T13:49:36;102039.09;;;4.45;66.65
46303;BME280;32029;51.358;5.628;2022-12-18T13:52:19;101999.88;;;4.25;66.43
46303;BME280;32029;51.358;5.628;2022-12-18T13:54:53;102032.53;;;4.48;66.59
46303;BME280;32029;51.358;5.628;2022-12-18T13:57:37;102014.00;;;4.41;66.27
46303;BME280;32029;51.358;5.628;2022-12-18T14:02:51;102002.84;;;4.33;65.82
46303;BME280;32029;51.358;5.628;2022-12-18T14:05:33;102031.44;;;4.50;65.84
46303;BME280;32029;51.358;5.628;2022-12-18T14:08:09;101990.31;;;4.20;65.91
46303;BME280;32029;51.358;5.628;2022-12-18T14:10:40;102037.72;;;4.51;65.94
46303;BME280;32029;51.358;5.628;2022-12-18T14:13:09;101993.94;;;4.31;65.89
46303;BME280;32029;51.358;5.628;2022-12-18T14:15:41;102019.16;;;4.45;66.04
46303;BME280;32029;51.358;5.628;2022-12-18T14:18:24;102018.84;;;4.49;65.91
46303;BME280;32029;51.358;5.628;2022-12-18T14:20:56;102019.94;;;4.47;65.77
46303;BME280;32029;51.358;5.628;2022-12-18T14:23:38;102031.47;;;4.61;65.55
46303;BME280;32029;51.358;5.628;2022-12-18T14:26:21;102037.00;;;4.60;65.31
46303;BME280;32029;51.358;5.628;2022-12-18T14:28:50;102021.94;;;4.56;65.26
46303;BME280;32029;51.358;5.628;2022-12-18T14:31:19;102007.34;;;4.46;65.35
46303;BME280;32029;51.358;5.628;2022-12-18T14:33:48;102022.47;;;4.61;65.44
46303;BME280;32029;51.358;5.628;2022-12-18T14:36:17;101994.97;;;4.41;64.88
46303;BME280;32029;51.358;5.628;2022-12-18T14:38:57;102027.91;;;4.61;65.02
46303;BME280;32029;51.358;5.628;2022-12-18T14:41:25;102025.66;;;4.66;64.76
46303;BME280;32029;51.358;5.628;2022-12-18T14:43:54;101992.53;;;4.50;65.24